sensor_id;sensor_type;location;lat;lon;timestamp;P1;durP1;ratioP1;P2;durP2;ratioP2
41653;SDS011;68687;52.030;7.110;2023-05-20T00:00:10;8.75;;;5.30;;
41653;SDS011;68687;52.030;7.110;2023-05-20T00:02:38;8.07;;;5.28;;
41653;SDS011;68687;52.030;7.110;2023-05-20T00:05:06;7.97;;;5.15;;
41653;SDS011;68687;52.030;7.110;2023-05-20T00:07:32;7.30;;;5.63;;
41653;SDS011;68687;52.030;7.110;2023-05-20T00:09:57;6.65;;;5.70;;
41653;SDS011;68687;52.030;7.110;2023-05-20T00:12:22;7.40;;;5.70;;
41653;SDS011;68687;52.030;7.110;2023-05-20T00:14:47;9.30;;;5.95;;
41653;SDS011;68687;52.030;7.110;2023-05-20T00:17:19;8.55;;;5.32;;
41653;SDS011;68687;52.030;7.110;2023-05-20T00:19:53;9.57;;;5.45;;
41653;SDS011;68687;52.030;7.110;2023-05-20T00:22:22;9.30;;;5.07;;
41653;SDS011;68687;52.030;7.110;2023-05-20T00:24:50;9.13;;;5.75;;
41653;SDS011;68687;52.030;7.110;2023-05-20T00:27:15;6.55;;;5.18;;
41653;SDS011;68687;52.030;7.110;2023-05-20T00:29:41;6.90;;;5.18;;
41653;SDS011;68687;52.030;7.110;2023-05-20T00:32:06;6.18;;;5.35;;
41653;SDS011;68687;52.030;7.110;2023-05-20T00:34:32;6.78;;;5.63;;
41653;SDS011;68687;52.030;7.110;2023-05-20T00:36:57;12.02;;;5.53;;
41653;SDS011;68687;52.030;7.110;2023-05-20T00:39:23;9.00;;;5.63;;
41653;SDS011;68687;52.030;7.110;2023-05-20T00:41:48;11.43;;;6.07;;
41653;SDS011;68687;52.030;7.110;2023-05-20T00:44:19;12.75;;;5.65;;
41653;SDS011;68687;52.030;7.110;2023-05-20T00:46:51;11.20;;;5.40;;
41653;SDS011;68687;52.030;7.110;2023-05-20T00:49:17;7.75;;;5.45;;
41653;SDS011;68687;52.030;7.110;2023-05-20T00:51:42;7.72;;;6.13;;
41653;SDS011;68687;52.030;7.110;2023-05-20T00:54:07;7.85;;;5.20;;
41653;SDS011;68687;52.030;7.110;2023-05-20T00:56:33;18.27;;;5.68;;
41653;SDS011;68687;52.030;7.110;2023-05-20T00:58:58;10.80;;;6.32;;
41653;SDS011;68687;52.030;7.110;2023-05-20T01:01:30;7.15;;;5.95;;
41653;SDS011;68687;52.030;7.110;2023-05-20T01:03:55;10.45;;;5.50;;
41653;SDS011;68687;52.030;7.110;2023-05-20T01:06:20;10.15;;;6.03;;
41653;SDS011;68687;52.030;7.110;2023-05-20T01:08:46;6.78;;;5.60;;
41653;SDS011;68687;52.030;7.110;2023-05-20T01:11:16;8.40;;;6.00;;
41653;SDS011;68687;52.030;7.110;2023-05-20T01:14:10;10.23;;;5.53;;
41653;SDS011;68687;52.030;7.110;2023-05-20T01:16:37;9.80;;;5.35;;
41653;SDS011;68687;52.030;7.110;2023-05-20T01:19:03;12.32;;;5.40;;
41653;SDS011;68687;52.030;7.110;2023-05-20T01:21:42;9.10;;;6.03;;
41653;SDS011;68687;52.030;7.110;2023-05-20T01:24:09;11.82;;;5.38;;
41653;SDS011;68687;52.030;7.110;2023-05-20T01:26:35;8.70;;;5.40;;
41653;SDS011;68687;52.030;7.110;2023-05-20T01:29:02;10.45;;;5.20;;
41653;SDS011;68687;52.030;7.110;2023-05-20T01:31:29;9.63;;;5.90;;
41653;SDS011;68687;52.030;7.110;2023-05-20T01:33:57;6.93;;;5.28;;
41653;SDS011;68687;52.030;7.110;2023-05-20T01:36:27;7.68;;;5.78;;
41653;SDS011;68687;52.030;7.110;2023-05-20T01:38:53;8.70;;;5.57;;
41653;SDS011;68687;52.030;7.110;2023-05-20T01:41:19;8.35;;;5.53;;
41653;SDS011;68687;52.030;7.110;2023-05-20T01:43:48;11.20;;;5.97;;
41653;SDS011;68687;52.030;7.110;2023-05-20T01:46:16;7.35;;;5.38;;
41653;SDS011;68687;52.030;7.110;2023-05-20T01:48:42;7.80;;;5.45;;
41653;SDS011;68687;52.030;7.110;2023-05-20T01:51:07;10.55;;;6.03;;
41653;SDS011;68687;52.030;7.110;2023-05-20T01:53:32;10.52;;;5.65;;
41653;SDS011;68687;52.030;7.110;2023-05-20T01:56:04;10.30;;;5.80;;
41653;SDS011;68687;52.030;7.110;2023-05-20T01:58:29;7.93;;;5.43;;
41653;SDS011;68687;52.030;7.110;2023-05-20T02:00:55;10.80;;;5.78;;
41653;SDS011;68687;52.030;7.110;2023-05-20T02:03:23;11.25;;;5.70;;
41653;SDS011;68687;52.030;7.110;2023-05-20T02:05:48;9.32;;;5.53;;
41653;SDS011;68687;52.030;7.110;2023-05-20T02:08:14;7.93;;;5.55;;
41653;SDS011;68687;52.030;7.110;2023-05-20T02:10:39;10.70;;;5.22;;
41653;SDS011;68687;52.030;7.110;2023-05-20T02:13:07;7.43;;;5.25;;
41653;SDS011;68687;52.030;7.110;2023-05-20T02:15:33;8.85;;;5.43;;
41653;SDS011;68687;52.030;7.110;2023-05-20T02:17:58;8.50;;;5.07;;
41653;SDS011;68687;52.030;7.110;2023-05-20T02:20:23;9.40;;;5.15;;
41653;SDS011;68687;52.030;7.110;2023-05-20T02:22:48;6.78;;;5.68;;
41653;SDS011;68687;52.030;7.110;2023-05-20T02:25:17;9.15;;;5.78;;
41653;SDS011;68687;52.030;7.110;2023-05-20T02:27:49;10.75;;;5.80;;
41653;SDS011;68687;52.030;7.110;2023-05-20T02:30:14;6.15;;;5.22;;
41653;SDS011;68687;52.030;7.110;2023-05-20T02:32:49;11.18;;;5.43;;
41653;SDS011;68687;52.030;7.110;2023-05-20T02:35:14;12.90;;;5.80;;
41653;SDS011;68687;52.030;7.110;2023-05-20T02:37:40;9.38;;;6.05;;
41653;SDS011;68687;52.030;7.110;2023-05-20T02:40:05;8.52;;;5.47;;
41653;SDS011;68687;52.030;7.110;2023-05-20T02:42:33;10.60;;;5.43;;
41653;SDS011;68687;52.030;7.110;2023-05-20T02:44:58;6.38;;;5.78;;
41653;SDS011;68687;52.030;7.110;2023-05-20T02:47:26;13.23;;;6.75;;
41653;SDS011;68687;52.030;7.110;2023-05-20T02:49:55;13.13;;;7.68;;
41653;SDS011;68687;52.030;7.110;2023-05-20T02:52:20;12.27;;;6.35;;
41653;SDS011;68687;52.030;7.110;2023-05-20T02:54:55;9.27;;;5.43;;
41653;SDS011;68687;52.030;7.110;2023-05-20T02:57:20;11.88;;;5.50;;
41653;SDS011;68687;52.030;7.110;2023-05-20T02:59:45;8.40;;;6.00;;
41653;SDS011;68687;52.030;7.110;2023-05-20T03:02:11;9.30;;;5.82;;
41653;SDS011;68687;52.030;7.110;2023-05-20T03:04:36;9.80;;;6.18;;
41653;SDS011;68687;52.030;7.110;2023-05-20T03:07:05;7.78;;;5.20;;
41653;SDS011;68687;52.030;7.110;2023-05-20T03:09:37;9.63;;;5.60;;
41653;SDS011;68687;52.030;7.110;2023-05-20T03:12:06;7.60;;;6.07;;
41653;SDS011;68687;52.030;7.110;2023-05-20T03:14:31;9.38;;;6.50;;
41653;SDS011;68687;52.030;7.110;2023-05-20T03:16:59;8.77;;;6.70;;
41653;SDS011;68687;52.030;7.110;2023-05-20T03:19:25;8.75;;;6.38;;
41653;SDS011;68687;52.030;7.110;2023-05-20T03:21:50;11.45;;;6.05;;
41653;SDS011;68687;52.030;7.110;2023-05-20T03:24:15;9.98;;;6.20;;
41653;SDS011;68687;52.030;7.110;2023-05-20T03:26:42;10.85;;;5.72;;
41653;SDS011;68687;52.030;7.110;2023-05-20T03:29:08;9.57;;;6.00;;
41653;SDS011;68687;52.030;7.110;2023-05-20T03:31:34;9.13;;;6.47;;
41653;SDS011;68687;52.030;7.110;2023-05-20T03:34:00;8.73;;;5.80;;
41653;SDS011;68687;52.030;7.110;2023-05-20T03:36:31;8.30;;;6.38;;
41653;SDS011;68687;52.030;7.110;2023-05-20T03:38:56;11.35;;;5.80;;
41653;SDS011;68687;52.030;7.110;2023-05-20T03:41:22;12.05;;;6.63;;
41653;SDS011;68687;52.030;7.110;2023-05-20T03:43:47;8.40;;;5.65;;
41653;SDS011;68687;52.030;7.110;2023-05-20T03:46:19;10.60;;;6.30;;
41653;SDS011;68687;52.030;7.110;2023-05-20T03:48:44;11.43;;;5.20;;
41653;SDS011;68687;52.030;7.110;2023-05-20T03:51:09;10.23;;;5.22;;
41653;SDS011;68687;52.030;7.110;2023-05-20T03:53:35;11.18;;;5.63;;
41653;SDS011;68687;52.030;7.110;2023-05-20T03:56:00;8.25;;;5.40;;
41653;SDS011;68687;52.030;7.110;2023-05-20T03:58:25;12.52;;;4.88;;
41653;SDS011;68687;52.030;7.110;2023-05-20T04:00:56;6.07;;;5.18;;
41653;SDS011;68687;52.030;7.110;2023-05-20T04:03:22;9.65;;;5.18;;
41653;SDS011;68687;52.030;7.110;2023-05-20T04:05:50;7.75;;;5.10;;
41653;SDS011;68687;52.030;7.110;2023-05-20T04:08:18;9.05;;;4.75;;
41653;SDS011;68687;52.030;7.110;2023-05-20T04:10:44;9.63;;;5.60;;
41653;SDS011;68687;52.030;7.110;2023-05-20T04:13:10;5.75;;;5.00;;
41653;SDS011;68687;52.030;7.110;2023-05-20T04:15:36;7.95;;;4.82;;
41653;SDS011;68687;52.030;7.110;2023-05-20T04:18:02;8.23;;;5.13;;
41653;SDS011;68687;52.030;7.110;2023-05-20T04:20:27;7.03;;;5.00;;
41653;SDS011;68687;52.030;7.110;2023-05-20T04:22:53;9.95;;;5.40;;
41653;SDS011;68687;52.030;7.110;2023-05-20T04:25:19;6.28;;;4.90;;
41653;SDS011;68687;52.030;7.110;2023-05-20T04:27:48;8.10;;;4.80;;
41653;SDS011;68687;52.030;7.110;2023-05-20T04:30:16;7.32;;;4.93;;
41653;SDS011;68687;52.030;7.110;2023-05-20T04:32:42;8.30;;;4.63;;
41653;SDS011;68687;52.030;7.110;2023-05-20T04:35:08;8.43;;;4.85;;
41653;SDS011;68687;52.030;7.110;2023-05-20T04:37:35;8.15;;;4.90;;
41653;SDS011;68687;52.030;7.110;2023-05-20T04:40:02;7.93;;;4.95;;
41653;SDS011;68687;52.030;7.110;2023-05-20T04:42:30;7.88;;;5.57;;
41653;SDS011;68687;52.030;7.110;2023-05-20T04:44:58;8.88;;;4.70;;
41653;SDS011;68687;52.030;7.110;2023-05-20T04:47:26;8.63;;;5.93;;
41653;SDS011;68687;52.030;7.110;2023-05-20T04:49:52;7.68;;;4.80;;
41653;SDS011;68687;52.030;7.110;2023-05-20T04:52:21;8.35;;;4.55;;
41653;SDS011;68687;52.030;7.110;2023-05-20T04:54:47;6.90;;;4.32;;
41653;SDS011;68687;52.030;7.110;2023-05-20T04:57:12;9.07;;;4.72;;
41653;SDS011;68687;52.030;7.110;2023-05-20T04:59:37;8.50;;;4.50;;
41653;SDS011;68687;52.030;7.110;2023-05-20T05:02:05;8.43;;;4.50;;
41653;SDS011;68687;52.030;7.110;2023-05-20T05:04:33;7.43;;;4.70;;
41653;SDS011;68687;52.030;7.110;2023-05-20T05:06:59;10.15;;;5.10;;
41653;SDS011;68687;52.030;7.110;2023-05-20T05:09:27;4.68;;;4.28;;
41653;SDS011;68687;52.030;7.110;2023-05-20T05:11:52;6.13;;;4.28;;
41653;SDS011;68687;52.030;7.110;2023-05-20T05:14:18;8.05;;;5.05;;
41653;SDS011;68687;52.030;7.110;2023-05-20T05:16:43;5.95;;;5.00;;
41653;SDS011;68687;52.030;7.110;2023-05-20T05:19:08;6.95;;;4.93;;
41653;SDS011;68687;52.030;7.110;2023-05-20T05:21:33;11.45;;;4.55;;
41653;SDS011;68687;52.030;7.110;2023-05-20T05:23:59;6.32;;;4.40;;
41653;SDS011;68687;52.030;7.110;2023-05-20T05:26:27;7.93;;;4.90;;
41653;SDS011;68687;52.030;7.110;2023-05-20T05:28:55;12.00;;;4.60;;
41653;SDS011;68687;52.030;7.110;2023-05-20T05:31:24;7.07;;;4.32;;
41653;SDS011;68687;52.030;7.110;2023-05-20T05:33:49;8.20;;;4.85;;
41653;SDS011;68687;52.030;7.110;2023-05-20T05:36:15;7.38;;;4.28;;
41653;SDS011;68687;52.030;7.110;2023-05-20T05:38:40;6.75;;;4.47;;
41653;SDS011;68687;52.030;7.110;2023-05-20T05:41:06;9.73;;;4.93;;
41653;SDS011;68687;52.030;7.110;2023-05-20T05:43:31;4.90;;;4.50;;
41653;SDS011;68687;52.030;7.110;2023-05-20T05:45:56;8.90;;;4.90;;
41653;SDS011;68687;52.030;7.110;2023-05-20T05:48:21;8.63;;;4.97;;
41653;SDS011;68687;52.030;7.110;2023-05-20T05:50:47;4.40;;;3.72;;
41653;SDS011;68687;52.030;7.110;2023-05-20T05:53:12;5.70;;;4.22;;
41653;SDS011;68687;52.030;7.110;2023-05-20T05:55:41;7.43;;;4.97;;
41653;SDS011;68687;52.030;7.110;2023-05-20T05:58:06;7.60;;;4.70;;
41653;SDS011;68687;52.030;7.110;2023-05-20T06:00:31;7.78;;;4.32;;
41653;SDS011;68687;52.030;7.110;2023-05-20T06:02:56;9.63;;;4.55;;
41653;SDS011;68687;52.030;7.110;2023-05-20T06:05:22;5.55;;;4.43;;
41653;SDS011;68687;52.030;7.110;2023-05-20T06:07:47;8.77;;;4.53;;
41653;SDS011;68687;52.030;7.110;2023-05-20T06:10:12;7.88;;;3.92;;
41653;SDS011;68687;52.030;7.110;2023-05-20T06:12:41;4.82;;;4.28;;
41653;SDS011;68687;52.030;7.110;2023-05-20T06:15:06;6.82;;;4.75;;
41653;SDS011;68687;52.030;7.110;2023-05-20T06:17:35;11.95;;;4.78;;
41653;SDS011;68687;52.030;7.110;2023-05-20T06:20:00;4.50;;;4.07;;
41653;SDS011;68687;52.030;7.110;2023-05-20T06:22:32;6.28;;;4.13;;
41653;SDS011;68687;52.030;7.110;2023-05-20T06:24:57;8.95;;;5.15;;
41653;SDS011;68687;52.030;7.110;2023-05-20T06:27:24;6.88;;;4.30;;
41653;SDS011;68687;52.030;7.110;2023-05-20T06:29:50;9.27;;;4.70;;
41653;SDS011;68687;52.030;7.110;2023-05-20T06:32:15;8.05;;;5.32;;
41653;SDS011;68687;52.030;7.110;2023-05-20T06:34:40;6.85;;;4.90;;
41653;SDS011;68687;52.030;7.110;2023-05-20T06:37:06;5.45;;;4.85;;
41653;SDS011;68687;52.030;7.110;2023-05-20T06:39:31;6.50;;;4.43;;
41653;SDS011;68687;52.030;7.110;2023-05-20T06:41:56;9.07;;;4.93;;
41653;SDS011;68687;52.030;7.110;2023-05-20T06:44:21;8.60;;;5.05;;
41653;SDS011;68687;52.030;7.110;2023-05-20T06:46:50;8.70;;;5.38;;
41653;SDS011;68687;52.030;7.110;2023-05-20T06:49:15;4.68;;;4.28;;
41653;SDS011;68687;52.030;7.110;2023-05-20T06:51:40;6.15;;;4.43;;
41653;SDS011;68687;52.030;7.110;2023-05-20T06:54:06;8.93;;;5.25;;
41653;SDS011;68687;52.030;7.110;2023-05-20T06:56:34;7.97;;;5.35;;
41653;SDS011;68687;52.030;7.110;2023-05-20T06:58:59;9.85;;;5.20;;
41653;SDS011;68687;52.030;7.110;2023-05-20T07:01:33;8.70;;;5.32;;
41653;SDS011;68687;52.030;7.110;2023-05-20T07:03:59;6.70;;;5.15;;
41653;SDS011;68687;52.030;7.110;2023-05-20T07:06:24;6.50;;;4.93;;
41653;SDS011;68687;52.030;7.110;2023-05-20T07:08:49;8.18;;;5.05;;
41653;SDS011;68687;52.030;7.110;2023-05-20T07:11:14;6.55;;;5.35;;
41653;SDS011;68687;52.030;7.110;2023-05-20T07:13:40;6.55;;;4.85;;
41653;SDS011;68687;52.030;7.110;2023-05-20T07:16:05;9.82;;;5.32;;
41653;SDS011;68687;52.030;7.110;2023-05-20T07:18:30;9.60;;;5.22;;
41653;SDS011;68687;52.030;7.110;2023-05-20T07:20:56;7.68;;;4.78;;
41653;SDS011;68687;52.030;7.110;2023-05-20T07:23:22;8.57;;;5.50;;
41653;SDS011;68687;52.030;7.110;2023-05-20T07:25:51;7.45;;;5.20;;
41653;SDS011;68687;52.030;7.110;2023-05-20T07:28:17;7.82;;;4.68;;
41653;SDS011;68687;52.030;7.110;2023-05-20T07:30:45;5.97;;;5.05;;
41653;SDS011;68687;52.030;7.110;2023-05-20T07:33:22;7.10;;;5.10;;
41653;SDS011;68687;52.030;7.110;2023-05-20T07:35:48;5.60;;;4.65;;
41653;SDS011;68687;52.030;7.110;2023-05-20T07:38:13;7.10;;;4.30;;
41653;SDS011;68687;52.030;7.110;2023-05-20T07:40:39;4.90;;;4.40;;
41653;SDS011;68687;52.030;7.110;2023-05-20T07:43:05;5.25;;;4.28;;
41653;SDS011;68687;52.030;7.110;2023-05-20T07:45:33;8.55;;;4.32;;
41653;SDS011;68687;52.030;7.110;2023-05-20T07:47:59;6.40;;;4.75;;
41653;SDS011;68687;52.030;7.110;2023-05-20T07:50:31;7.75;;;4.45;;
41653;SDS011;68687;52.030;7.110;2023-05-20T07:52:57;5.60;;;4.90;;
41653;SDS011;68687;52.030;7.110;2023-05-20T07:55:22;5.30;;;4.57;;
41653;SDS011;68687;52.030;7.110;2023-05-20T07:57:50;6.70;;;4.85;;
41653;SDS011;68687;52.030;7.110;2023-05-20T08:00:16;8.23;;;4.25;;
41653;SDS011;68687;52.030;7.110;2023-05-20T08:02:41;4.63;;;4.22;;
41653;SDS011;68687;52.030;7.110;2023-05-20T08:05:07;8.32;;;3.78;;
41653;SDS011;68687;52.030;7.110;2023-05-20T08:07:32;7.30;;;4.65;;
41653;SDS011;68687;52.030;7.110;2023-05-20T08:09:59;7.95;;;4.28;;
41653;SDS011;68687;52.030;7.110;2023-05-20T08:12:25;5.00;;;3.67;;
41653;SDS011;68687;52.030;7.110;2023-05-20T08:14:50;7.97;;;4.53;;
41653;SDS011;68687;52.030;7.110;2023-05-20T08:17:21;5.57;;;4.03;;
41653;SDS011;68687;52.030;7.110;2023-05-20T08:19:50;14.93;;;4.10;;
41653;SDS011;68687;52.030;7.110;2023-05-20T08:22:18;5.63;;;4.22;;
41653;SDS011;68687;52.030;7.110;2023-05-20T08:24:43;6.90;;;4.47;;
41653;SDS011;68687;52.030;7.110;2023-05-20T08:27:09;6.45;;;4.45;;
41653;SDS011;68687;52.030;7.110;2023-05-20T08:29:34;4.55;;;3.90;;
41653;SDS011;68687;52.030;7.110;2023-05-20T08:32:00;4.55;;;3.97;;
41653;SDS011;68687;52.030;7.110;2023-05-20T08:34:25;4.38;;;3.97;;
41653;SDS011;68687;52.030;7.110;2023-05-20T08:36:50;4.47;;;3.80;;
41653;SDS011;68687;52.030;7.110;2023-05-20T08:39:16;8.38;;;4.38;;
41653;SDS011;68687;52.030;7.110;2023-05-20T08:41:45;7.90;;;4.85;;
41653;SDS011;68687;52.030;7.110;2023-05-20T08:44:11;6.25;;;4.53;;
41653;SDS011;68687;52.030;7.110;2023-05-20T08:46:36;4.50;;;4.05;;
41653;SDS011;68687;52.030;7.110;2023-05-20T08:49:03;6.38;;;4.38;;
41653;SDS011;68687;52.030;7.110;2023-05-20T08:51:32;4.47;;;4.07;;
41653;SDS011;68687;52.030;7.110;2023-05-20T08:54:03;5.38;;;4.43;;
41653;SDS011;68687;52.030;7.110;2023-05-20T08:56:29;5.00;;;4.55;;
41653;SDS011;68687;52.030;7.110;2023-05-20T08:58:58;8.02;;;4.43;;
41653;SDS011;68687;52.030;7.110;2023-05-20T09:01:24;4.85;;;4.32;;
41653;SDS011;68687;52.030;7.110;2023-05-20T09:03:58;9.18;;;4.68;;
41653;SDS011;68687;52.030;7.110;2023-05-20T09:06:23;7.28;;;4.50;;
41653;SDS011;68687;52.030;7.110;2023-05-20T09:08:51;6.85;;;3.67;;
41653;SDS011;68687;52.030;7.110;2023-05-20T09:11:17;5.72;;;4.15;;
41653;SDS011;68687;52.030;7.110;2023-05-20T09:13:44;4.90;;;3.60;;
41653;SDS011;68687;52.030;7.110;2023-05-20T09:16:09;7.18;;;3.80;;
41653;SDS011;68687;52.030;7.110;2023-05-20T09:18:38;5.35;;;3.80;;
41653;SDS011;68687;52.030;7.110;2023-05-20T09:21:04;4.75;;;3.70;;
41653;SDS011;68687;52.030;7.110;2023-05-20T09:23:35;5.72;;;3.75;;
41653;SDS011;68687;52.030;7.110;2023-05-20T09:26:02;4.22;;;3.75;;
41653;SDS011;68687;52.030;7.110;2023-05-20T09:28:28;4.97;;;3.80;;
41653;SDS011;68687;52.030;7.110;2023-05-20T09:30:56;6.80;;;3.90;;
41653;SDS011;68687;52.030;7.110;2023-05-20T09:33:28;5.18;;;3.58;;
41653;SDS011;68687;52.030;7.110;2023-05-20T09:36:02;6.15;;;3.83;;
41653;SDS011;68687;52.030;7.110;2023-05-20T09:38:29;6.03;;;4.43;;
41653;SDS011;68687;52.030;7.110;2023-05-20T09:41:02;10.40;;;3.80;;
41653;SDS011;68687;52.030;7.110;2023-05-20T09:43:31;9.05;;;3.80;;
41653;SDS011;68687;52.030;7.110;2023-05-20T09:45:57;4.32;;;3.33;;
41653;SDS011;68687;52.030;7.110;2023-05-20T09:48:24;10.27;;;3.88;;
41653;SDS011;68687;52.030;7.110;2023-05-20T09:50:51;7.32;;;3.72;;
41653;SDS011;68687;52.030;7.110;2023-05-20T09:53:18;4.22;;;3.83;;
41653;SDS011;68687;52.030;7.110;2023-05-20T09:55:45;3.85;;;3.42;;
41653;SDS011;68687;52.030;7.110;2023-05-20T09:58:10;4.97;;;4.00;;
41653;SDS011;68687;52.030;7.110;2023-05-20T10:00:37;7.38;;;4.28;;
41653;SDS011;68687;52.030;7.110;2023-05-20T10:03:02;6.18;;;4.28;;
41653;SDS011;68687;52.030;7.110;2023-05-20T10:05:29;5.57;;;4.40;;
41653;SDS011;68687;52.030;7.110;2023-05-20T10:10:55;4.60;;;4.18;;
41653;SDS011;68687;52.030;7.110;2023-05-20T10:19:17;4.30;;;3.03;;
41653;SDS011;68687;52.030;7.110;2023-05-20T10:21:44;6.47;;;3.73;;
41653;SDS011;68687;52.030;7.110;2023-05-20T10:24:27;6.95;;;4.03;;
41653;SDS011;68687;52.030;7.110;2023-05-20T10:26:54;6.30;;;4.18;;
41653;SDS011;68687;52.030;7.110;2023-05-20T10:29:23;5.57;;;4.40;;
41653;SDS011;68687;52.030;7.110;2023-05-20T10:31:52;6.07;;;4.28;;
41653;SDS011;68687;52.030;7.110;2023-05-20T10:34:21;7.80;;;3.83;;
41653;SDS011;68687;52.030;7.110;2023-05-20T10:39:25;6.25;;;3.90;;
41653;SDS011;68687;52.030;7.110;2023-05-20T10:47:07;4.88;;;3.85;;
41653;SDS011;68687;52.030;7.110;2023-05-20T10:49:33;4.20;;;3.80;;
41653;SDS011;68687;52.030;7.110;2023-05-20T10:51:59;5.13;;;3.40;;
41653;SDS011;68687;52.030;7.110;2023-05-20T10:54:34;5.88;;;3.92;;
41653;SDS011;68687;52.030;7.110;2023-05-20T10:57:00;4.00;;;3.33;;
41653;SDS011;68687;52.030;7.110;2023-05-20T10:59:33;5.10;;;4.00;;
41653;SDS011;68687;52.030;7.110;2023-05-20T11:02:02;5.85;;;4.10;;
41653;SDS011;68687;52.030;7.110;2023-05-20T11:04:28;5.22;;;3.95;;
41653;SDS011;68687;52.030;7.110;2023-05-20T11:06:54;5.88;;;3.78;;
41653;SDS011;68687;52.030;7.110;2023-05-20T11:09:22;4.35;;;3.83;;
41653;SDS011;68687;52.030;7.110;2023-05-20T11:11:54;5.57;;;3.03;;
41653;SDS011;68687;52.030;7.110;2023-05-20T11:14:20;5.35;;;3.47;;
41653;SDS011;68687;52.030;7.110;2023-05-20T11:16:45;3.65;;;3.20;;
41653;SDS011;68687;52.030;7.110;2023-05-20T11:19:15;3.83;;;3.53;;
41653;SDS011;68687;52.030;7.110;2023-05-20T11:21:41;4.55;;;3.97;;
41653;SDS011;68687;52.030;7.110;2023-05-20T11:24:13;3.63;;;3.33;;
41653;SDS011;68687;52.030;7.110;2023-05-20T11:26:46;7.40;;;3.55;;
41653;SDS011;68687;52.030;7.110;2023-05-20T11:29:11;6.05;;;3.17;;
41653;SDS011;68687;52.030;7.110;2023-05-20T11:31:37;3.67;;;3.28;;
41653;SDS011;68687;52.030;7.110;2023-05-20T11:34:03;5.22;;;3.40;;
41653;SDS011;68687;52.030;7.110;2023-05-20T11:36:28;4.47;;;3.70;;
41653;SDS011;68687;52.030;7.110;2023-05-20T11:38:56;5.97;;;3.53;;
41653;SDS011;68687;52.030;7.110;2023-05-20T11:41:26;10.40;;;3.97;;
41653;SDS011;68687;52.030;7.110;2023-05-20T11:43:58;3.58;;;3.28;;
41653;SDS011;68687;52.030;7.110;2023-05-20T11:46:24;7.45;;;3.40;;
41653;SDS011;68687;52.030;7.110;2023-05-20T11:48:50;4.97;;;3.60;;
41653;SDS011;68687;52.030;7.110;2023-05-20T11:51:26;3.92;;;3.50;;
41653;SDS011;68687;52.030;7.110;2023-05-20T11:53:52;6.55;;;2.88;;
41653;SDS011;68687;52.030;7.110;2023-05-20T11:56:23;4.30;;;3.08;;
41653;SDS011;68687;52.030;7.110;2023-05-20T11:58:48;5.35;;;3.20;;
41653;SDS011;68687;52.030;7.110;2023-05-20T12:01:17;4.57;;;3.35;;
41653;SDS011;68687;52.030;7.110;2023-05-20T12:03:42;3.50;;;3.20;;
41653;SDS011;68687;52.030;7.110;2023-05-20T12:06:10;5.45;;;3.67;;
41653;SDS011;68687;52.030;7.110;2023-05-20T12:08:39;4.80;;;3.33;;
41653;SDS011;68687;52.030;7.110;2023-05-20T12:11:04;4.43;;;3.35;;
41653;SDS011;68687;52.030;7.110;2023-05-20T12:13:36;5.90;;;2.65;;
41653;SDS011;68687;52.030;7.110;2023-05-20T12:16:01;7.15;;;3.05;;
41653;SDS011;68687;52.030;7.110;2023-05-20T12:18:32;5.85;;;3.28;;
41653;SDS011;68687;52.030;7.110;2023-05-20T12:21:01;5.45;;;3.28;;
41653;SDS011;68687;52.030;7.110;2023-05-20T12:23:26;7.05;;;3.05;;
41653;SDS011;68687;52.030;7.110;2023-05-20T12:25:53;3.63;;;2.80;;
41653;SDS011;68687;52.030;7.110;2023-05-20T12:28:18;3.25;;;2.80;;
41653;SDS011;68687;52.030;7.110;2023-05-20T12:30:43;6.78;;;3.15;;
41653;SDS011;68687;52.030;7.110;2023-05-20T12:33:09;5.15;;;2.67;;
41653;SDS011;68687;52.030;7.110;2023-05-20T12:38:03;5.40;;;3.25;;
41653;SDS011;68687;52.030;7.110;2023-05-20T12:40:32;4.60;;;3.00;;
41653;SDS011;68687;52.030;7.110;2023-05-20T12:42:59;9.00;;;2.92;;
41653;SDS011;68687;52.030;7.110;2023-05-20T12:45:28;3.35;;;2.85;;
41653;SDS011;68687;52.030;7.110;2023-05-20T12:47:54;6.25;;;3.42;;
41653;SDS011;68687;52.030;7.110;2023-05-20T12:50:20;5.72;;;2.90;;
41653;SDS011;68687;52.030;7.110;2023-05-20T12:52:46;5.80;;;3.35;;
41653;SDS011;68687;52.030;7.110;2023-05-20T12:55:11;5.43;;;2.95;;
41653;SDS011;68687;52.030;7.110;2023-05-20T12:57:40;6.93;;;2.72;;
41653;SDS011;68687;52.030;7.110;2023-05-20T13:00:07;3.97;;;3.17;;
41653;SDS011;68687;52.030;7.110;2023-05-20T13:02:34;6.00;;;2.92;;
41653;SDS011;68687;52.030;7.110;2023-05-20T13:05:04;6.00;;;2.80;;
41653;SDS011;68687;52.030;7.110;2023-05-20T13:07:29;5.18;;;2.95;;
41653;SDS011;68687;52.030;7.110;2023-05-20T13:09:56;3.15;;;2.95;;
41653;SDS011;68687;52.030;7.110;2023-05-20T13:12:22;7.72;;;3.38;;
41653;SDS011;68687;52.030;7.110;2023-05-20T13:14:47;4.95;;;3.30;;
41653;SDS011;68687;52.030;7.110;2023-05-20T13:17:12;6.43;;;3.10;;
41653;SDS011;68687;52.030;7.110;2023-05-20T13:19:38;3.22;;;2.90;;
41653;SDS011;68687;52.030;7.110;2023-05-20T13:22:04;3.83;;;3.00;;
41653;SDS011;68687;52.030;7.110;2023-05-20T13:24:33;9.38;;;3.00;;
41653;SDS011;68687;52.030;7.110;2023-05-20T13:26:58;4.18;;;2.60;;
41653;SDS011;68687;52.030;7.110;2023-05-20T13:29:25;6.13;;;2.70;;
41653;SDS011;68687;52.030;7.110;2023-05-20T13:31:50;6.03;;;3.20;;
41653;SDS011;68687;52.030;7.110;2023-05-20T13:34:16;4.15;;;3.05;;
41653;SDS011;68687;52.030;7.110;2023-05-20T13:36:41;4.95;;;2.63;;
41653;SDS011;68687;52.030;7.110;2023-05-20T13:39:06;4.32;;;3.55;;
41653;SDS011;68687;52.030;7.110;2023-05-20T13:41:32;2.80;;;2.60;;
41653;SDS011;68687;52.030;7.110;2023-05-20T13:43:57;4.40;;;2.72;;
41653;SDS011;68687;52.030;7.110;2023-05-20T13:46:22;4.97;;;2.78;;
41653;SDS011;68687;52.030;7.110;2023-05-20T13:48:48;2.90;;;2.70;;
41653;SDS011;68687;52.030;7.110;2023-05-20T13:51:13;5.47;;;2.95;;
41653;SDS011;68687;52.030;7.110;2023-05-20T13:53:38;12.13;;;4.85;;
41653;SDS011;68687;52.030;7.110;2023-05-20T13:56:04;6.97;;;2.90;;
41653;SDS011;68687;52.030;7.110;2023-05-20T13:58:29;3.80;;;2.95;;
41653;SDS011;68687;52.030;7.110;2023-05-20T14:00:58;3.17;;;2.88;;
41653;SDS011;68687;52.030;7.110;2023-05-20T14:03:23;3.38;;;3.05;;
41653;SDS011;68687;52.030;7.110;2023-05-20T14:05:48;3.40;;;2.90;;
41653;SDS011;68687;52.030;7.110;2023-05-20T14:08:14;3.88;;;2.65;;
41653;SDS011;68687;52.030;7.110;2023-05-20T14:10:39;4.75;;;3.33;;
41653;SDS011;68687;52.030;7.110;2023-05-20T14:13:05;3.55;;;2.88;;
41653;SDS011;68687;52.030;7.110;2023-05-20T14:15:30;6.63;;;2.83;;
41653;SDS011;68687;52.030;7.110;2023-05-20T14:17:56;3.53;;;2.60;;
41653;SDS011;68687;52.030;7.110;2023-05-20T14:20:22;6.43;;;2.80;;
41653;SDS011;68687;52.030;7.110;2023-05-20T14:22:48;4.85;;;3.50;;
41653;SDS011;68687;52.030;7.110;2023-05-20T14:25:14;9.55;;;2.90;;
41653;SDS011;68687;52.030;7.110;2023-05-20T14:27:39;5.13;;;2.65;;
41653;SDS011;68687;52.030;7.110;2023-05-20T14:30:05;3.45;;;2.83;;
41653;SDS011;68687;52.030;7.110;2023-05-20T14:32:31;4.80;;;2.67;;
41653;SDS011;68687;52.030;7.110;2023-05-20T14:35:02;7.38;;;2.80;;
41653;SDS011;68687;52.030;7.110;2023-05-20T14:37:28;4.47;;;2.92;;
41653;SDS011;68687;52.030;7.110;2023-05-20T14:39:54;5.13;;;3.10;;
41653;SDS011;68687;52.030;7.110;2023-05-20T14:42:19;4.18;;;2.67;;
41653;SDS011;68687;52.030;7.110;2023-05-20T14:44:44;7.88;;;3.30;;
41653;SDS011;68687;52.030;7.110;2023-05-20T14:47:10;4.78;;;2.78;;
41653;SDS011;68687;52.030;7.110;2023-05-20T14:49:35;4.75;;;3.28;;
41653;SDS011;68687;52.030;7.110;2023-05-20T14:52:03;6.50;;;3.00;;
41653;SDS011;68687;52.030;7.110;2023-05-20T14:54:29;4.57;;;3.22;;
41653;SDS011;68687;52.030;7.110;2023-05-20T14:56:54;3.28;;;2.97;;
41653;SDS011;68687;52.030;7.110;2023-05-20T14:59:20;7.25;;;3.30;;
41653;SDS011;68687;52.030;7.110;2023-05-20T15:01:45;6.93;;;3.10;;